createdAt,value
2022-08-01T00:00:50.872Z,1.80
2022-08-01T00:03:18.719Z,2.00
2022-08-01T00:05:49.369Z,1.70
2022-08-01T00:08:17.184Z,2.03
2022-08-01T00:10:45.120Z,2.30
2022-08-01T00:13:13.048Z,1.93
2022-08-01T00:15:41.031Z,2.27
2022-08-01T00:18:19.695Z,2.13
2022-08-01T00:20:48.906Z,2.30
2022-08-01T00:23:16.746Z,2.13
2022-08-01T00:25:44.676Z,2.00
2022-08-01T00:28:14.418Z,1.70
2022-08-01T00:30:42.359Z,1.60
2022-08-01T00:33:10.182Z,2.10
2022-08-01T00:35:37.973Z,2.30
2022-08-01T00:38:07.292Z,2.10
2022-08-01T00:40:35.157Z,1.90
2022-08-01T00:43:03.004Z,2.10
2022-08-01T00:45:30.829Z,1.70
2022-08-01T00:47:58.625Z,2.07
2022-08-01T00:50:26.715Z,2.10
2022-08-01T00:52:56.741Z,2.30
2022-08-01T00:55:26.441Z,2.00
2022-08-01T00:58:04.617Z,2.20
2022-08-01T01:00:52.055Z,2.47
2022-08-01T01:03:23.812Z,2.63
2022-08-01T01:06:13.409Z,2.10
2022-08-01T01:08:47.288Z,2.57
2022-08-01T01:11:25.103Z,2.20
2022-08-01T01:13:59.326Z,2.00
2022-08-01T01:16:27.839Z,2.07
2022-08-01T01:18:58.080Z,2.13
2022-08-01T01:21:59.835Z,2.50
2022-08-01T01:24:38.498Z,1.93
2022-08-01T01:27:14.580Z,2.30
2022-08-01T01:29:58.628Z,2.30
2022-08-01T01:32:35.049Z,2.03
2022-08-01T01:35:06.898Z,2.10
2022-08-01T01:37:36.215Z,2.10
2022-08-01T01:40:06.442Z,2.20
2022-08-01T01:42:35.104Z,2.20
2022-08-01T01:45:07.697Z,2.27
2022-08-01T01:47:36.327Z,2.30
2022-08-01T01:50:05.905Z,2.37
2022-08-01T01:52:34.550Z,2.07
2022-08-01T01:55:07.669Z,2.30
2022-08-01T01:57:39.775Z,2.27
2022-08-01T02:00:10.178Z,2.30
2022-08-01T02:02:39.332Z,2.40
2022-08-01T02:05:09.049Z,1.93
2022-08-01T02:07:38.783Z,2.00
2022-08-01T02:10:08.141Z,2.30
2022-08-01T02:12:40.891Z,2.40
2022-08-01T02:15:13.218Z,2.27
2022-08-01T02:17:45.637Z,2.40
2022-08-01T02:20:14.545Z,2.50
2022-08-01T02:22:46.253Z,2.27
2022-08-01T02:25:21.037Z,2.40
2022-08-01T02:27:56.061Z,2.40
2022-08-01T02:30:27.914Z,2.33
2022-08-01T02:33:03.052Z,2.60
2022-08-01T02:35:33.807Z,2.17
2022-08-01T02:38:04.049Z,2.47
2022-08-01T02:40:35.704Z,2.30
2022-08-01T02:43:07.228Z,2.57
2022-08-01T02:45:39.290Z,2.30
2022-08-01T02:48:13.515Z,2.47
2022-08-01T02:50:44.511Z,2.40
2022-08-01T02:53:14.369Z,2.17
2022-08-01T02:55:44.137Z,2.47
2022-08-01T02:58:14.511Z,2.20
2022-08-01T03:00:47.555Z,2.50
2022-08-01T03:03:18.155Z,2.60
2022-08-01T03:05:47.540Z,2.80
2022-08-01T03:08:17.339Z,2.90
2022-08-01T03:10:47.779Z,2.60
2022-08-01T03:13:17.884Z,2.60
2022-08-01T03:15:48.822Z,2.47
2022-08-01T03:18:18.095Z,2.57
2022-08-01T03:20:47.603Z,2.50
2022-08-01T03:23:17.291Z,2.63
2022-08-01T03:25:47.243Z,2.67
2022-08-01T03:28:17.953Z,3.10
2022-08-01T03:30:50.758Z,2.63
2022-08-01T03:33:19.335Z,2.30
2022-08-01T03:35:51.386Z,2.90
2022-08-01T03:38:23.143Z,3.10
2022-08-01T03:40:55.452Z,2.87
2022-08-01T03:43:29.743Z,2.67
2022-08-01T03:46:04.203Z,2.47
2022-08-01T03:48:37.355Z,2.80
2022-08-01T03:51:07.533Z,3.07
2022-08-01T03:53:36.807Z,3.10
2022-08-01T03:56:12.127Z,2.80
2022-08-01T03:58:43.546Z,2.90
2022-08-01T04:01:15.469Z,2.80
2022-08-01T04:03:44.734Z,3.53
2022-08-01T04:06:14.746Z,2.70
2022-08-01T04:08:43.209Z,3.07
2022-08-01T04:11:11.785Z,3.13
2022-08-01T04:13:39.668Z,2.83
2022-08-01T04:16:13.553Z,3.07
2022-08-01T04:18:41.620Z,2.97
2022-08-01T04:21:09.931Z,2.90
2022-08-01T04:23:39.554Z,3.23
2022-08-01T04:26:08.925Z,3.13
2022-08-01T04:28:39.263Z,3.27
2022-08-01T04:31:12.254Z,2.90
2022-08-01T04:33:43.989Z,2.97
2022-08-01T04:36:14.453Z,4.07
2022-08-01T04:38:44.114Z,3.20
2022-08-01T04:41:14.474Z,3.27
2022-08-01T04:43:44.436Z,2.97
2022-08-01T04:46:13.865Z,3.20
2022-08-01T04:48:43.584Z,2.73
2022-08-01T04:51:17.119Z,2.57
2022-08-01T04:53:46.684Z,2.73
2022-08-01T04:56:14.968Z,2.50
2022-08-01T04:58:43.685Z,2.60
2022-08-01T05:01:12.604Z,3.07
2022-08-01T05:03:42.100Z,2.47
2022-08-01T05:06:10.035Z,2.90
2022-08-01T05:08:37.903Z,2.70
2022-08-01T05:11:06.017Z,2.50
2022-08-01T05:13:33.821Z,2.70
2022-08-01T05:16:04.482Z,2.80
2022-08-01T05:18:32.372Z,2.97
2022-08-01T05:21:02.841Z,3.13
2022-08-01T05:23:42.013Z,2.50
2022-08-01T05:26:11.393Z,2.95
2022-08-01T05:28:42.668Z,3.22
2022-08-01T05:31:10.651Z,2.65
2022-08-01T05:33:38.463Z,3.15
2022-08-01T05:36:08.113Z,2.67
2022-08-01T05:38:36.113Z,2.95
2022-08-01T05:41:03.979Z,3.30
2022-08-01T05:43:32.203Z,3.13
2022-08-01T05:46:00.305Z,2.75
2022-08-01T05:48:28.175Z,2.50
2022-08-01T05:50:58.542Z,2.80
2022-08-01T05:53:28.489Z,2.97
2022-08-01T05:55:56.778Z,2.90
2022-08-01T05:58:24.820Z,2.88
2022-08-01T06:00:52.649Z,2.53
2022-08-01T06:03:20.564Z,2.78
2022-08-01T06:05:48.440Z,2.22
2022-08-01T06:08:16.525Z,2.55
2022-08-01T06:10:45.766Z,2.45
2022-08-01T06:13:13.635Z,2.50
2022-08-01T06:15:41.655Z,2.30
2022-08-01T06:18:09.457Z,2.70
2022-08-01T06:20:37.334Z,2.50
2022-08-01T06:23:31.323Z,2.35
2022-08-01T06:25:55.975Z,2.50
2022-08-01T06:28:23.870Z,2.38
2022-08-01T06:30:51.947Z,2.35
2022-08-01T06:33:19.874Z,2.15
2022-08-01T06:35:47.723Z,2.20
2022-08-01T06:38:16.135Z,2.38
2022-08-01T06:40:44.120Z,2.08
2022-08-01T06:43:13.364Z,2.10
2022-08-01T06:45:41.531Z,2.03
2022-08-01T06:48:09.351Z,2.10
2022-08-01T06:50:37.795Z,2.08
2022-08-01T06:53:05.879Z,2.05
2022-08-01T06:55:33.745Z,2.38
2022-08-01T06:58:01.625Z,1.98
2022-08-01T07:00:30.881Z,2.20
2022-08-01T07:03:00.477Z,2.08
2022-08-01T07:05:28.644Z,2.22
2022-08-01T07:07:56.747Z,2.10
2022-08-01T07:10:24.801Z,2.47
2022-08-01T07:12:52.822Z,2.40
2022-08-01T07:15:22.990Z,2.25
2022-08-01T07:17:52.190Z,2.40
2022-08-01T07:20:20.269Z,2.20
2022-08-01T07:22:48.449Z,2.80
2022-08-01T07:25:16.552Z,2.42
2022-08-01T07:27:44.539Z,2.47
2022-08-01T07:30:13.131Z,2.50
2022-08-01T07:32:41.454Z,2.90
2022-08-01T07:35:11.421Z,2.38
2022-08-01T07:37:47.797Z,2.40
2022-08-01T07:40:18.032Z,2.42
2022-08-01T07:42:46.060Z,2.55
2022-08-01T07:45:14.922Z,2.45
2022-08-01T07:47:42.769Z,2.47
2022-08-01T07:50:13.522Z,2.50
2022-08-01T07:52:41.409Z,2.67
2022-08-01T07:55:10.584Z,2.35
2022-08-01T07:57:38.835Z,2.60
2022-08-01T08:00:09.506Z,2.92
2022-08-01T08:02:37.403Z,2.80
2022-08-01T08:05:05.773Z,2.75
2022-08-01T08:07:35.618Z,2.33
2022-08-01T08:10:03.520Z,2.92
2022-08-01T08:12:31.417Z,2.42
2022-08-01T08:15:57.915Z,2.85
2022-08-01T08:18:26.106Z,2.50
2022-08-01T08:20:54.086Z,2.85
2022-08-01T08:23:42.893Z,3.10
2022-08-01T08:26:11.859Z,2.78
2022-08-01T08:28:40.482Z,2.90
2022-08-01T08:31:25.481Z,2.65
2022-08-01T08:33:56.753Z,2.75
2022-08-01T08:36:30.896Z,3.17
2022-08-01T08:39:01.526Z,2.95
2022-08-01T08:41:37.847Z,2.22
2022-08-01T08:44:10.106Z,2.85
2022-08-01T08:46:45.260Z,3.30
2022-08-01T08:49:14.904Z,3.20
2022-08-01T08:51:44.039Z,2.60
2022-08-01T08:54:14.729Z,2.80
2022-08-01T08:56:43.802Z,4.60
2022-08-01T08:59:15.136Z,3.08
2022-08-01T09:01:44.038Z,3.95
2022-08-01T09:04:12.532Z,2.95
2022-08-01T09:06:41.089Z,3.03
2022-08-01T09:09:10.763Z,3.58
2022-08-01T09:11:44.019Z,5.57
2022-08-01T09:14:27.884Z,2.97
2022-08-01T09:17:04.691Z,3.30
2022-08-01T09:19:41.599Z,2.83
2022-08-01T09:22:11.657Z,3.45
2022-08-01T09:24:41.358Z,3.10
2022-08-01T09:27:22.527Z,3.22
2022-08-01T09:30:01.397Z,3.88
2022-08-01T09:32:35.226Z,3.08
2022-08-01T09:35:30.625Z,3.28
2022-08-01T09:38:15.597Z,3.40
2022-08-01T09:40:52.419Z,3.10
2022-08-01T09:43:24.023Z,3.45
2022-08-01T09:45:53.236Z,3.17
2022-08-01T09:48:28.754Z,3.80
2022-08-01T09:51:01.322Z,2.97
2022-08-01T09:53:43.477Z,3.40
2022-08-01T09:56:19.515Z,2.72
2022-08-01T09:59:00.539Z,2.70
2022-08-01T10:01:37.011Z,2.80
2022-08-01T10:04:09.783Z,2.40
2022-08-01T10:06:39.093Z,2.90
2022-08-01T10:09:06.925Z,2.95
2022-08-01T10:11:39.104Z,2.65
2022-08-01T10:14:09.186Z,2.92
2022-08-01T10:16:38.403Z,2.75
2022-08-01T10:19:11.300Z,2.70
2022-08-01T10:21:57.073Z,2.60
2022-08-01T10:24:27.278Z,2.92
2022-08-01T10:27:00.721Z,2.90
2022-08-01T10:29:59.779Z,2.70
2022-08-01T10:32:28.755Z,3.13
2022-08-01T10:34:57.502Z,2.28
2022-08-01T10:37:27.178Z,2.75
2022-08-01T10:40:14.167Z,2.30
2022-08-01T10:42:45.942Z,2.60
2022-08-01T10:45:17.828Z,2.65
2022-08-01T10:47:55.413Z,2.33
2022-08-01T10:50:29.380Z,2.38
2022-08-01T10:53:15.264Z,2.33
2022-08-01T10:55:49.360Z,2.70
2022-08-01T10:58:22.905Z,2.45
2022-08-01T11:01:20.446Z,2.33
2022-08-01T11:04:01.256Z,2.40
2022-08-01T11:06:41.386Z,2.40
2022-08-01T11:09:24.699Z,2.35
2022-08-01T11:12:08.124Z,2.08
2022-08-01T11:15:29.759Z,2.17
2022-08-01T11:18:01.488Z,2.50
2022-08-01T11:20:32.126Z,1.80
2022-08-01T11:23:29.416Z,1.98
2022-08-01T11:26:28.946Z,1.80
2022-08-01T11:29:22.783Z,2.47
2022-08-01T11:31:52.654Z,2.10
2022-08-01T11:34:42.200Z,2.65
2022-08-01T11:37:26.200Z,2.17
2022-08-01T11:40:18.297Z,2.75
2022-08-01T11:42:47.037Z,2.45
2022-08-01T11:45:18.549Z,2.95
2022-08-01T11:47:49.849Z,2.55
2022-08-01T11:50:38.226Z,2.20
2022-08-01T11:53:08.307Z,2.38
2022-08-01T11:55:36.710Z,2.00
2022-08-01T11:58:06.235Z,2.22
2022-08-01T12:00:35.531Z,2.25
2022-08-01T12:03:06.034Z,2.10
2022-08-01T12:05:43.055Z,2.00
2022-08-01T12:08:11.454Z,1.83
2022-08-01T12:10:49.453Z,2.67
2022-08-01T12:13:18.862Z,2.72
2022-08-01T12:15:47.459Z,2.40
2022-08-01T12:18:15.807Z,2.53
2022-08-01T12:20:56.491Z,1.90
2022-08-01T12:23:25.421Z,1.70
2022-08-01T12:25:54.475Z,2.00
2022-08-01T12:28:23.689Z,2.25
2022-08-01T12:30:51.734Z,1.85
2022-08-01T12:33:21.298Z,2.00
2022-08-01T12:35:50.611Z,1.95
2022-08-01T12:38:22.990Z,2.10
2022-08-01T12:40:52.920Z,1.67
2022-08-01T12:43:28.516Z,1.90
2022-08-01T12:46:00.059Z,1.98
2022-08-01T12:48:29.399Z,2.10
2022-08-01T12:51:02.049Z,2.17
2022-08-01T12:53:40.241Z,2.17
2022-08-01T12:56:10.406Z,1.98
2022-08-01T12:58:38.615Z,1.95
2022-08-01T13:01:09.270Z,1.92
2022-08-01T13:03:38.312Z,2.45
2022-08-01T13:06:15.243Z,2.30
2022-08-01T13:08:43.122Z,2.15
2022-08-01T13:11:15.098Z,1.90
2022-08-01T13:13:45.591Z,3.03
2022-08-01T13:16:25.991Z,2.50
2022-08-01T13:19:01.959Z,3.08
2022-08-01T13:21:53.162Z,2.60
2022-08-01T13:24:25.788Z,3.10
2022-08-01T13:27:00.009Z,2.97
2022-08-01T13:29:33.646Z,2.80
2022-08-01T13:32:02.026Z,2.75
2022-08-01T13:34:34.442Z,2.45
2022-08-01T13:37:04.170Z,2.42
2022-08-01T13:39:45.400Z,2.55
2022-08-01T13:42:16.370Z,2.60
2022-08-01T13:44:47.092Z,2.60
2022-08-01T13:47:16.068Z,2.75
2022-08-01T13:49:44.940Z,2.60
2022-08-01T13:52:14.130Z,2.50
2022-08-01T13:54:41.990Z,2.75
2022-08-01T13:57:10.322Z,3.03
2022-08-01T13:59:38.510Z,2.78
2022-08-01T14:02:06.666Z,2.80
2022-08-01T14:04:34.765Z,2.58
2022-08-01T14:07:09.645Z,2.40
2022-08-01T14:10:04.388Z,2.53
2022-08-01T14:12:28.896Z,2.45
2022-08-01T14:14:57.207Z,2.33
2022-08-01T14:17:25.044Z,2.40
2022-08-01T14:19:52.882Z,2.33
2022-08-01T14:22:20.743Z,2.63
2022-08-01T14:24:50.054Z,2.80
2022-08-01T14:27:17.842Z,2.30
2022-08-01T14:30:01.230Z,2.17
2022-08-01T14:32:31.856Z,2.40
2022-08-01T14:34:59.680Z,2.25
2022-08-01T14:37:28.933Z,2.30
2022-08-01T14:40:00.152Z,2.17
2022-08-01T14:42:28.248Z,2.28
2022-08-01T14:44:56.038Z,2.35
2022-08-01T14:47:23.852Z,2.28
2022-08-01T14:49:52.096Z,2.20
2022-08-01T14:52:20.527Z,1.95
2022-08-01T14:54:48.554Z,2.08
2022-08-01T14:57:19.086Z,2.05
2022-08-01T14:59:47.327Z,2.00
2022-08-01T15:02:17.899Z,1.65
2022-08-01T15:04:46.037Z,2.10
2022-08-01T15:07:14.355Z,2.13
2022-08-01T15:09:42.528Z,2.20
2022-08-01T15:12:11.292Z,2.65
2022-08-01T15:14:50.812Z,2.00
2022-08-01T15:17:20.454Z,2.50
2022-08-01T15:19:52.164Z,2.60
2022-08-01T15:22:22.138Z,2.60
2022-08-01T15:24:55.342Z,2.58
2022-08-01T15:27:25.836Z,2.40
2022-08-01T15:29:55.565Z,2.88
2022-08-01T15:32:24.538Z,2.95
2022-08-01T15:34:52.602Z,2.40
2022-08-01T15:37:20.491Z,2.65
2022-08-01T15:39:48.416Z,2.60
2022-08-01T15:42:20.165Z,2.65
2022-08-01T15:44:55.127Z,2.80
2022-08-01T15:47:24.861Z,2.85
2022-08-01T15:49:53.117Z,2.60
2022-08-01T15:52:22.990Z,2.40
2022-08-01T15:54:51.176Z,2.70
2022-08-01T15:57:19.028Z,2.75
2022-08-01T15:59:46.998Z,2.83
2022-08-01T16:02:19.221Z,2.92
2022-08-01T16:04:47.089Z,3.38
2022-08-01T16:07:14.883Z,2.58
2022-08-01T16:09:42.763Z,2.53
2022-08-01T16:12:10.912Z,2.45
2022-08-01T16:14:38.846Z,2.40
2022-08-01T16:17:09.909Z,2.50
2022-08-01T16:19:39.059Z,2.70
2022-08-01T16:22:07.040Z,2.55
2022-08-01T16:24:36.282Z,2.90
2022-08-01T16:27:04.603Z,2.63
2022-08-01T16:29:32.725Z,2.47
2022-08-01T16:32:21.314Z,2.75
2022-08-01T16:34:49.681Z,2.72
2022-08-01T16:37:17.774Z,2.92
2022-08-01T16:39:45.868Z,2.85
2022-08-01T16:42:15.398Z,2.85
2022-08-01T16:44:44.898Z,2.42
2022-08-01T16:47:12.746Z,2.90
2022-08-01T16:49:40.578Z,2.70
2022-08-01T16:52:10.111Z,2.70
2022-08-01T16:54:38.104Z,2.70
2022-08-01T16:57:08.777Z,3.15
2022-08-01T16:59:41.389Z,3.55
2022-08-01T17:02:10.288Z,2.70
2022-08-01T17:04:38.174Z,2.88
2022-08-01T17:07:06.363Z,2.80
2022-08-01T17:09:38.691Z,2.50
2022-08-01T17:12:11.777Z,2.22
2022-08-01T17:14:40.601Z,2.92
2022-08-01T17:17:09.433Z,2.95
2022-08-01T17:19:37.570Z,2.90
2022-08-01T17:22:05.512Z,2.80
2022-08-01T17:24:34.700Z,2.85
2022-08-01T17:27:02.538Z,2.42
2022-08-01T17:29:43.994Z,2.55
2022-08-01T17:32:13.582Z,3.20
2022-08-01T17:34:41.449Z,2.78
2022-08-01T17:37:10.335Z,2.58
2022-08-01T17:39:40.208Z,2.80
2022-08-01T17:42:09.219Z,2.67
2022-08-01T17:44:37.483Z,2.83
2022-08-01T17:47:05.969Z,2.78
2022-08-01T17:49:53.843Z,2.77
2022-08-01T17:52:22.142Z,2.83
2022-08-01T17:54:51.834Z,3.43
2022-08-01T17:57:19.640Z,3.13
2022-08-01T17:59:47.503Z,2.70
2022-08-01T18:02:15.326Z,3.10
2022-08-01T18:04:44.259Z,3.10
2022-08-01T18:07:13.162Z,3.13
2022-08-01T18:09:45.742Z,2.87
2022-08-01T18:12:15.248Z,2.50
2022-08-01T18:14:43.972Z,2.77
2022-08-01T18:17:12.358Z,3.10
2022-08-01T18:19:40.293Z,3.30
2022-08-01T18:22:28.826Z,2.90
2022-08-01T18:24:56.396Z,2.90
2022-08-01T18:27:25.930Z,3.13
2022-08-01T18:30:13.876Z,3.40
2022-08-01T18:32:42.334Z,3.70
2022-08-01T18:35:14.036Z,3.33
2022-08-01T18:38:26.349Z,3.50
2022-08-01T18:40:54.341Z,3.37
2022-08-01T18:43:23.614Z,3.77
2022-08-01T18:45:51.581Z,4.20
2022-08-01T18:48:20.130Z,3.67
2022-08-01T18:50:48.021Z,3.17
2022-08-01T18:53:15.858Z,3.47
2022-08-01T18:55:43.736Z,3.43
2022-08-01T18:58:11.548Z,3.50
2022-08-01T19:00:40.767Z,3.23
2022-08-01T19:03:08.734Z,3.40
2022-08-01T19:05:36.889Z,3.20
2022-08-01T19:08:07.738Z,3.50
2022-08-01T19:10:36.561Z,3.30
2022-08-01T19:13:04.877Z,3.20
2022-08-01T19:15:32.812Z,3.40
2022-08-01T19:18:03.191Z,3.50
2022-08-01T19:20:31.685Z,3.40
2022-08-01T19:22:59.792Z,3.07
2022-08-01T19:25:28.240Z,3.40
2022-08-01T19:27:57.619Z,3.60
2022-08-01T19:30:25.899Z,4.10
2022-08-01T19:32:56.019Z,3.33
2022-08-01T19:35:25.995Z,3.20
2022-08-01T19:37:54.573Z,2.90
2022-08-01T19:40:27.288Z,3.60
2022-08-01T19:42:57.521Z,3.43
2022-08-01T19:45:29.071Z,3.83
2022-08-01T19:47:57.932Z,3.90
2022-08-01T19:50:28.001Z,3.30
2022-08-01T19:52:58.842Z,3.47
2022-08-01T19:55:28.996Z,3.27
2022-08-01T19:58:24.594Z,2.60
2022-08-01T20:00:49.135Z,3.20
2022-08-01T20:03:19.829Z,2.87
2022-08-01T20:05:49.236Z,2.80
2022-08-01T20:08:18.515Z,2.90
2022-08-01T20:10:48.474Z,2.90
2022-08-01T20:13:16.820Z,2.87
2022-08-01T20:15:45.478Z,2.30
2022-08-01T20:18:13.445Z,2.73
2022-08-01T20:20:41.341Z,2.80
2022-08-01T20:23:18.334Z,2.50
2022-08-01T20:25:49.453Z,2.23
2022-08-01T20:28:18.214Z,2.30
2022-08-01T20:30:47.747Z,2.17
2022-08-01T20:33:16.833Z,2.40
2022-08-01T20:35:52.160Z,2.47
2022-08-01T20:38:23.953Z,1.93
2022-08-01T20:40:53.007Z,2.43
2022-08-01T20:43:22.553Z,2.13
2022-08-01T20:45:51.832Z,1.90
2022-08-01T20:48:20.281Z,2.10
2022-08-01T20:51:03.078Z,2.00
2022-08-01T20:53:34.922Z,2.07
2022-08-01T20:56:07.638Z,1.70
2022-08-01T20:58:45.241Z,2.07
2022-08-01T21:01:16.415Z,1.77
2022-08-01T21:03:59.395Z,2.03
2022-08-01T21:06:34.731Z,1.60
2022-08-01T21:09:06.318Z,1.93
2022-08-01T21:11:41.621Z,1.63
2022-08-01T21:14:13.063Z,2.00
2022-08-01T21:16:47.262Z,1.87
2022-08-01T21:19:20.891Z,1.70
2022-08-01T21:21:52.336Z,1.43
2022-08-01T21:24:24.466Z,1.53
2022-08-01T21:26:54.429Z,1.57
2022-08-01T21:29:25.069Z,1.50
2022-08-01T21:32:11.440Z,1.63
2022-08-01T21:34:40.476Z,1.60
2022-08-01T21:37:10.067Z,1.70
2022-08-01T21:39:40.281Z,1.50
2022-08-01T21:42:09.594Z,1.50
2022-08-01T21:44:39.467Z,1.57
2022-08-01T21:47:11.939Z,1.70
2022-08-01T21:49:40.427Z,1.57
2022-08-01T21:52:15.071Z,1.63
2022-08-01T21:54:57.421Z,1.27
2022-08-01T21:57:45.041Z,1.50
2022-08-01T22:00:25.250Z,1.63
2022-08-01T22:03:04.135Z,1.27
2022-08-01T22:05:49.693Z,1.63
2022-08-01T22:08:28.533Z,1.30
2022-08-01T22:11:01.291Z,1.33
2022-08-01T22:13:29.327Z,1.43
2022-08-01T22:15:57.958Z,1.20
2022-08-01T22:18:27.385Z,1.30
2022-08-01T22:20:56.061Z,1.43
2022-08-01T22:23:24.318Z,1.47
2022-08-01T22:25:53.477Z,1.23
2022-08-01T22:28:23.517Z,1.30
2022-08-01T22:30:52.359Z,1.23
2022-08-01T22:33:20.829Z,1.40
2022-08-01T22:35:51.285Z,1.20
2022-08-01T22:38:20.251Z,1.40
2022-08-01T22:40:51.412Z,1.47
2022-08-01T22:43:30.349Z,1.87
2022-08-01T22:46:22.145Z,1.40
2022-08-01T22:48:52.611Z,1.17
2022-08-01T22:51:30.819Z,1.40
2022-08-01T22:54:06.980Z,1.50
2022-08-01T22:56:39.177Z,1.40
2022-08-01T22:59:14.782Z,1.70
2022-08-01T23:01:48.453Z,1.60
2022-08-01T23:04:28.801Z,1.60
2022-08-01T23:07:05.469Z,1.80
2022-08-01T23:09:53.306Z,1.20
2022-08-01T23:12:25.169Z,1.50
2022-08-01T23:14:56.380Z,1.17
2022-08-01T23:17:26.702Z,1.40
2022-08-01T23:19:58.790Z,1.43
2022-08-01T23:22:30.139Z,1.30
2022-08-01T23:25:04.286Z,1.50
2022-08-01T23:27:55.877Z,1.50
2022-08-01T23:30:26.643Z,1.73
2022-08-01T23:32:54.977Z,1.40
2022-08-01T23:35:23.007Z,1.60
2022-08-01T23:37:51.879Z,1.40
2022-08-01T23:40:20.701Z,1.40
2022-08-01T23:42:53.519Z,1.50
2022-08-01T23:45:21.555Z,1.40
2022-08-01T23:47:50.772Z,1.07
2022-08-01T23:50:18.681Z,1.47
2022-08-01T23:52:50.554Z,1.50
2022-08-01T23:55:19.692Z,1.47
2022-08-01T23:57:54.594Z,1.90
